createdAt,value
2022-12-25T00:15:19.130Z,21.10
2022-12-25T00:25:25.018Z,20.20
2022-12-25T00:35:31.257Z,20.60
2022-12-25T00:45:37.360Z,17.70
2022-12-25T00:55:43.648Z,19.20
2022-12-25T01:05:57.791Z,18.40
2022-12-25T01:16:08.585Z,17.50
2022-12-25T01:26:16.309Z,15.20
2022-12-25T01:36:23.942Z,14.50
2022-12-25T01:46:30.058Z,16.00
2022-12-25T01:56:38.665Z,14.40
2022-12-25T02:06:44.782Z,14.20
2022-12-25T02:16:58.947Z,12.40
2022-12-25T02:27:15.488Z,13.90
2022-12-25T02:37:25.340Z,14.00
2022-12-25T02:47:49.921Z,15.40
2022-12-25T02:58:30.886Z,17.80
2022-12-25T03:08:40.676Z,15.60
2022-12-25T03:18:47.186Z,15.40
2022-12-25T03:28:53.109Z,15.90
2022-12-25T03:39:33.458Z,18.80
2022-12-25T03:50:05.350Z,18.10
2022-12-25T04:00:30.437Z,17.80
2022-12-25T04:10:54.399Z,18.60
2022-12-25T04:21:17.739Z,19.00
2022-12-25T04:31:41.841Z,19.90
2022-12-25T04:41:47.959Z,17.80
2022-12-25T04:51:53.842Z,15.70
2022-12-25T05:01:59.892Z,13.10
2022-12-25T05:12:06.871Z,14.60
2022-12-25T05:22:12.909Z,11.70
2022-12-25T05:32:18.931Z,12.40
2022-12-25T05:42:24.838Z,11.20
2022-12-25T05:52:33.746Z,9.70
2022-12-25T06:02:39.752Z,9.80
2022-12-25T06:12:45.689Z,11.20
2022-12-25T06:22:51.759Z,13.60
2022-12-25T06:32:59.563Z,12.90
2022-12-25T06:43:06.105Z,12.80
2022-12-25T06:53:12.214Z,16.70
2022-12-25T07:03:21.821Z,14.30
2022-12-25T07:13:28.229Z,14.30
2022-12-25T07:23:34.336Z,13.60
2022-12-25T07:33:40.241Z,15.20
2022-12-25T07:43:46.351Z,12.70
2022-12-25T07:53:52.704Z,13.10
2022-12-25T08:04:00.680Z,12.80
2022-12-25T08:14:09.054Z,14.80
2022-12-25T08:24:15.097Z,14.60
2022-12-25T08:34:21.123Z,13.00
2022-12-25T08:44:27.028Z,13.00
2022-12-25T08:54:34.849Z,14.30
2022-12-25T09:04:40.886Z,14.90
2022-12-25T09:14:46.780Z,14.80
2022-12-25T09:24:52.887Z,14.30
2022-12-25T09:34:58.901Z,15.00
2022-12-25T09:45:12.507Z,16.60
2022-12-25T09:55:21.953Z,18.60
2022-12-25T10:05:57.067Z,16.20
2022-12-25T10:16:15.789Z,19.10
2022-12-25T10:26:25.393Z,16.80
2022-12-25T10:36:32.525Z,18.10
2022-12-25T10:46:38.545Z,19.10
2022-12-25T10:56:55.477Z,19.80
2022-12-25T11:07:06.270Z,16.50
2022-12-25T11:17:19.111Z,14.70
2022-12-25T11:27:28.684Z,13.70
2022-12-25T11:37:39.536Z,14.30
2022-12-25T11:47:50.019Z,13.60
2022-12-25T11:58:00.589Z,9.70
2022-12-25T12:08:10.647Z,11.20
2022-12-25T12:18:23.980Z,12.70
2022-12-25T12:28:38.868Z,13.20
2022-12-25T12:38:47.233Z,12.30
2022-12-25T12:48:55.762Z,12.10
2022-12-25T12:59:01.786Z,13.90
2022-12-25T13:09:18.324Z,13.10
2022-12-25T13:19:26.988Z,12.70
2022-12-25T13:29:34.562Z,10.00
2022-12-25T13:39:48.716Z,13.30
2022-12-25T13:49:56.685Z,11.80
2022-12-25T14:00:03.956Z,14.00
2022-12-25T14:10:15.177Z,18.40
2022-12-25T14:20:33.902Z,17.60
2022-12-25T14:30:44.988Z,18.30
2022-12-25T14:41:01.829Z,17.20
2022-12-25T14:51:16.271Z,21.50
2022-12-25T15:01:28.425Z,18.80
2022-12-25T15:11:34.706Z,14.50
2022-12-25T15:21:41.026Z,15.70
2022-12-25T15:31:47.191Z,17.40
2022-12-25T15:42:11.018Z,14.10
2022-12-25T15:52:18.358Z,15.50
2022-12-25T16:02:24.515Z,15.50
2022-12-25T16:12:30.838Z,17.80
2022-12-25T16:22:40.044Z,16.00
2022-12-25T16:32:49.392Z,15.60
2022-12-25T16:42:55.829Z,15.00
2022-12-25T16:53:01.694Z,14.50
2022-12-25T17:03:07.681Z,16.70
2022-12-25T17:13:13.559Z,16.20
2022-12-25T17:23:19.455Z,17.70
2022-12-25T17:33:25.416Z,17.60
2022-12-25T17:43:31.559Z,21.20
2022-12-25T17:53:38.964Z,18.90
2022-12-25T18:03:45.860Z,21.70
2022-12-25T18:13:53.957Z,20.00
2022-12-25T18:23:59.886Z,19.00
2022-12-25T18:34:06.003Z,20.80
2022-12-25T18:44:11.952Z,19.90
2022-12-25T18:54:17.832Z,18.90
2022-12-25T19:04:24.062Z,20.30
2022-12-25T19:14:30.159Z,21.10
2022-12-25T19:24:53.640Z,18.90
2022-12-25T19:35:04.364Z,18.70
2022-12-25T19:45:11.861Z,17.50
2022-12-25T20:15:29.323Z,17.10
2022-12-25T20:25:35.757Z,17.40
2022-12-25T20:35:48.032Z,16.80
2022-12-25T20:45:54.370Z,19.20
2022-12-25T20:56:01.453Z,19.10
2022-12-25T21:06:08.411Z,17.70
2022-12-25T21:16:16.190Z,18.60
2022-12-25T21:26:24.680Z,18.00
2022-12-25T21:36:35.763Z,17.90
2022-12-25T21:46:41.762Z,15.50
2022-12-25T21:56:49.292Z,18.30
2022-12-25T22:07:12.308Z,17.40
2022-12-25T22:17:36.738Z,17.40
2022-12-25T22:27:43.814Z,17.60
2022-12-25T22:37:50.113Z,15.50
2022-12-25T22:47:56.087Z,17.70
2022-12-25T22:58:02.063Z,17.40
2022-12-25T23:08:08.109Z,18.60
2022-12-25T23:18:31.482Z,18.20
2022-12-25T23:28:55.059Z,18.50
2022-12-25T23:39:09.001Z,17.20
2022-12-25T23:49:15.946Z,17.30
2022-12-25T23:59:21.913Z,18.80
